Time;durP1;ratioP1;P1;durP2;ratioP2;P2;SDS_P1;SDS_P2;PMS_P1;PMS_P2;Temp;Humidity;BMP_temperature;BMP_pressure;BME280_temperature;BME280_humidity;BME280_pressure;Samples;Min_cycle;Max_cycle;Signal;HPM_P1;HPM_P2
2023/01/26 00:03:58;;;;;;;9.33;7.33;;;;;;;16.83;49.64;97053.72;10387140;28;20561;-27
2023/01/26 00:08:58;;;;;;;8.52;7.35;;;;;;;16.88;49.39;97041.97;10370179;28;20066;-27
2023/01/26 00:13:59;;;;;;;8.63;7.30;;;;;;;16.88;48.99;97044.50;10362536;28;20042;-28
2023/01/26 00:19:00;;;;;;;9.35;6.65;;;;;;;16.88;48.79;97029.31;10379335;28;20057;-27
2023/01/26 00:24:01;;;;;;;9.05;7.55;;;;;;;16.85;49.03;97022.59;10370529;28;20033;-27
2023/01/26 00:29:01;;;;;;;7.13;6.35;;;;;;;16.82;49.82;97014.13;10361202;28;20037;-27
2023/01/26 00:34:01;;;;;;;9.20;7.20;;;;;;;16.86;49.57;97018.34;10371033;28;20044;-26
2023/01/26 00:39:02;;;;;;;9.27;6.83;;;;;;;16.83;49.05;97010.75;10366525;28;20049;-28
2023/01/26 00:44:03;;;;;;;8.25;6.93;;;;;;;16.89;49.07;97009.13;10359383;28;20053;-27
2023/01/26 00:49:03;;;;;;;8.55;6.60;;;;;;;16.88;49.25;96999.84;10360131;28;20707;-27
2023/01/26 00:54:03;;;;;;;7.77;6.47;;;;;;;16.88;49.16;97006.56;10359427;28;20034;-27
2023/01/26 00:59:05;;;;;;;8.80;6.83;;;;;;;16.87;48.91;97000.69;10363330;28;20113;-27
2023/01/26 01:04:05;;;;;;;9.75;7.10;;;;;;;16.86;49.00;97003.19;10369480;28;20553;-26
2023/01/26 01:09:07;;;;;;;8.55;7.15;;;;;;;16.86;48.78;96982.94;10359902;28;20117;-27
2023/01/26 01:14:07;;;;;;;8.57;6.82;;;;;;;16.87;48.37;96984.66;10365947;28;20041;-27
2023/01/26 01:19:12;;;;;;;8.27;6.83;;;;;;;16.88;48.24;96976.22;10357691;28;20041;-26
2023/01/26 01:24:13;;;;;;;10.25;7.68;;;;;;;16.88;48.17;96976.22;10362267;28;20029;-27
2023/01/26 01:29:13;;;;;;;9.40;7.47;;;;;;;16.88;47.75;96968.63;10366600;28;20489;-27
2023/01/26 01:34:14;;;;;;;8.07;6.82;;;;;;;16.89;48.37;96960.25;10367225;28;20061;-27
2023/01/26 01:39:14;;;;;;;7.60;6.53;;;;;;;16.88;47.36;96968.63;10364813;28;20038;-27
2023/01/26 01:44:17;;;;;;;8.00;6.82;;;;;;;16.86;48.50;96962.72;10365190;28;20346;-28
2023/01/26 01:49:25;;;;;;;8.80;6.75;;;;;;;16.81;48.21;96954.25;10367801;28;20586;-27
2023/01/26 01:54:32;;;;;;;8.07;6.32;;;;;;;16.83;48.39;96945.00;10364061;28;20121;-27
2023/01/26 01:59:33;;;;;;;;;;;;;;;16.85;48.51;96951.78;10366497;28;20026;-27
2023/01/26 02:04:33;;;;;;;7.63;6.18;;;;;;;16.81;48.51;96936.56;10367500;28;19920;-27
2023/01/26 02:15:00;;;;;;;7.78;6.72;;;;;;;16.86;48.40;96947.56;10357053;28;20045;-28
2023/01/26 02:20:06;;;;;;;8.77;6.43;;;;;;;16.86;47.74;96948.41;10373372;28;20046;-27
2023/01/26 02:25:18;;;;;;;9.48;5.68;;;;;;;16.87;48.33;96945.06;10364181;28;20546;-27
2023/01/26 02:30:20;;;;;;;7.40;6.22;;;;;;;16.81;47.75;96928.97;10364805;28;20041;-27
2023/01/26 02:35:21;;;;;;;8.75;7.05;;;;;;;16.87;48.14;96937.47;10365404;28;20034;-27
2023/01/26 02:40:43;;;;;;;6.60;5.85;;;;;;;16.86;47.94;96930.72;10362364;28;20087;-27
2023/01/26 02:45:43;;;;;;;7.78;6.38;;;;;;;16.88;47.46;96918.06;10361852;28;20088;-27
2023/01/26 02:50:44;;;;;;;7.47;6.22;;;;;;;16.86;47.95;96907.09;10364835;28;20571;-27
2023/01/26 02:55:44;;;;;;;9.23;6.17;;;;;;;16.85;47.70;96903.75;10356564;28;20092;-28
2023/01/26 03:00:44;;;;;;;7.07;6.23;;;;;;;16.88;47.50;96908.81;10363025;28;20136;-27
2023/01/26 03:05:48;;;;;;;7.27;5.80;;;;;;;16.86;47.58;96907.09;10366708;28;20038;-27
2023/01/26 03:10:48;;;;;;;7.45;5.90;;;;;;;16.86;47.29;96905.44;10366191;28;20044;-26
2023/01/26 03:15:53;;;;;;;6.93;6.13;;;;;;;16.89;46.85;96912.19;10357635;28;20045;-27
2023/01/26 03:31:36;;;;;;;5.88;5.28;;;;;;;16.85;47.27;96895.28;10385803;28;20449;-27
2023/01/26 03:36:37;;;;;;;7.03;6.10;;;;;;;16.82;47.34;96900.34;10368137;28;20030;-27
2023/01/26 03:57:39;;;;;;;7.18;5.45;;;;;;;16.88;46.89;96891.09;10379904;28;20508;-27
2023/01/26 04:24:12;;;;;;;5.10;4.60;;;;;;;16.88;46.24;96883.53;10375025;28;20034;-27
2023/01/26 04:29:15;;;;;;;5.97;5.30;;;;;;;16.84;47.14;96868.31;10372804;28;20117;-29
2023/01/26 04:34:17;;;;;;;6.18;5.20;;;;;;;16.85;46.40;96875.06;10363592;28;20064;-27
2023/01/26 04:39:17;;;;;;;6.88;5.85;;;;;;;16.84;46.43;96856.50;10365067;28;20094;-27
2023/01/26 04:44:21;;;;;;;5.20;4.53;;;;;;;16.82;47.55;96849.75;10363793;28;20042;-28
2023/01/26 04:49:23;;;;;;;5.68;5.07;;;;;;;16.79;47.31;96844.66;10366710;28;20417;-27
2023/01/26 04:54:24;;;;;;;6.17;5.27;;;;;;;16.79;47.58;96834.53;10366163;28;20037;-27
2023/01/26 04:59:24;;;;;;;6.03;4.97;;;;;;;16.77;47.44;96842.13;10364064;28;20346;-27
2023/01/26 05:04:29;;;;;;;6.32;5.15;;;;;;;16.80;47.21;96837.09;10363217;28;20118;-26
2023/01/26 05:09:30;;;;;;;6.88;5.85;;;;;;;16.90;45.75;96833.81;10367326;28;20128;-27
2023/01/26 05:14:48;;;;;;;6.18;5.28;;;;;;;16.96;46.17;96833.84;10360499;28;20057;-27
2023/01/26 05:19:57;;;;;;;7.25;6.03;;;;;;;17.03;45.46;96834.75;10364802;28;20125;-27
2023/01/26 05:25:24;;;;;;;11.53;6.67;;;;;;;17.09;42.92;96839.84;10360718;28;20038;-27
2023/01/26 05:30:35;;;;;;;9.80;6.93;;;;;;;17.10;44.05;96841.53;10366462;28;20022;-27
2023/01/26 05:35:37;;;;;;;8.65;6.85;;;;;;;17.13;42.70;96836.50;10370987;28;20034;-27
2023/01/26 05:40:39;;;;;;;9.23;6.93;;;;;;;17.11;43.66;96850.81;10354329;28;20509;-27
2023/01/26 05:45:40;;;;;;;11.23;7.10;;;;;;;17.13;42.33;96846.63;10359279;28;20022;-28
2023/01/26 05:50:40;;;;;;;9.82;7.13;;;;;;;16.97;45.02;96850.72;10361880;28;20754;-27
2023/01/26 05:55:47;;;;;;;10.40;6.88;;;;;;;16.89;45.67;96851.50;10356889;28;20060;-27
2023/01/26 06:00:47;;;;;;;19.20;12.57;;;;;;;16.68;47.51;96856.38;10353174;28;20030;-27
2023/01/26 06:05:55;;;;;;;11.07;7.80;;;;;;;16.63;48.42;96855.47;10364349;28;20034;-27
2023/01/26 06:11:28;;;;;;;12.30;7.07;;;;;;;16.67;47.69;96843.69;10338407;28;20047;-27
2023/01/26 06:16:47;;;;;;;11.05;6.88;;;;;;;16.66;48.42;96837.81;10365257;28;20518;-27
2023/01/26 06:21:48;;;;;;;10.70;6.93;;;;;;;16.63;48.09;96842.81;10365683;28;20045;-26
2023/01/26 06:26:48;;;;;;;8.65;6.13;;;;;;;16.62;47.94;96846.19;10360136;28;20456;-26
2023/01/26 06:31:50;;;;;;;10.75;6.18;;;;;;;16.50;45.69;96835.13;10371393;28;20498;-26
2023/01/26 06:36:51;;;;;;;9.98;5.60;;;;;;;16.58;48.21;96824.25;10367821;28;20030;-27
2023/01/26 06:41:59;;;;;;;10.90;5.82;;;;;;;16.56;46.55;96825.94;10359134;28;20402;-27
2023/01/26 06:47:02;;;;;;;8.53;5.23;;;;;;;16.61;47.12;96820.94;10382372;28;20041;-27
2023/01/26 06:52:25;;;;;;;10.35;5.45;;;;;;;16.63;47.20;96832.72;10366593;28;20034;-29
2023/01/26 06:57:27;;;;;;;6.95;4.93;;;;;;;16.60;47.09;96837.75;10361715;28;20026;-27
2023/01/26 07:02:39;;;;;;;9.45;5.20;;;;;;;16.62;46.89;96835.25;10376258;28;20088;-27
2023/01/26 07:07:39;;;;;;;7.80;4.75;;;;;;;16.59;47.38;96836.06;10372661;28;20045;-27
2023/01/26 07:12:41;;;;;;;7.93;4.30;;;;;;;16.56;47.59;96832.66;10368649;28;20520;-27
2023/01/26 07:17:41;;;;;;;7.40;4.60;;;;;;;16.57;47.10;96836.88;10374394;28;20048;-27
2023/01/26 07:22:42;;;;;;;7.93;4.80;;;;;;;16.57;47.16;96831.81;10372303;28;20529;-27
2023/01/26 07:27:42;;;;;;;5.10;3.80;;;;;;;16.59;47.46;96841.13;10370665;28;20485;-27
2023/01/26 07:32:42;;;;;;;6.80;4.55;;;;;;;16.60;46.79;96854.63;10373995;28;20117;-27
2023/01/26 07:37:43;;;;;;;4.87;4.20;;;;;;;16.56;47.49;96851.22;10366872;28;20176;-27
2023/01/26 07:42:43;;;;;;;4.90;4.20;;;;;;;16.57;47.26;96857.97;10363529;28;20033;-26
2023/01/26 07:48:14;;;;;;;5.10;3.97;;;;;;;16.55;47.37;96854.53;10366373;28;20121;-27
2023/01/26 07:53:21;;;;;;;6.45;4.20;;;;;;;16.55;47.55;96858.78;10368658;28;20034;-27
2023/01/26 07:58:22;;;;;;;8.93;4.43;;;;;;;16.53;47.11;96855.38;10365846;28;20462;-27
2023/01/26 08:03:23;;;;;;;5.00;3.63;;;;;;;16.53;47.39;96851.16;10379171;28;20124;-27
2023/01/26 08:08:23;;;;;;;4.47;3.80;;;;;;;16.51;47.00;96850.31;10370555;28;20038;-28
2023/01/26 08:13:24;;;;;;;4.80;3.43;;;;;;;16.52;47.46;96858.75;10370628;28;20702;-27
2023/01/26 08:18:24;;;;;;;4.60;3.43;;;;;;;16.49;47.48;96849.44;10371577;28;20093;-26
2023/01/26 08:23:26;;;;;;;6.22;4.13;;;;;;;16.51;47.17;96841.88;10366110;28;20323;-27
2023/01/26 08:28:26;;;;;;;5.15;3.50;;;;;;;16.49;47.67;96849.44;10368520;28;20383;-27
2023/01/26 08:33:27;;;;;;;5.85;3.20;;;;;;;16.51;47.93;96837.66;10371050;28;20034;-27
2023/01/26 08:38:29;;;;;;;3.30;2.90;;;;;;;16.48;47.25;96840.19;10368520;28;20132;-27
2023/01/26 08:43:30;;;;;;;7.80;3.78;;;;;;;16.52;47.48;96844.41;10361047;28;20037;-26
2023/01/26 08:48:30;;;;;;;4.40;3.50;;;;;;;16.50;47.21;96857.88;10370266;28;20036;-26
2023/01/26 08:53:33;;;;;;;3.22;2.70;;;;;;;16.50;47.51;96850.28;10369423;28;20117;-27
2023/01/26 08:58:34;;;;;;;7.65;3.65;;;;;;;16.50;47.48;96851.16;10363897;28;20044;-27
2023/01/26 09:03:35;;;;;;;3.97;3.17;;;;;;;16.51;47.11;96857.88;10370636;28;20040;-27
2023/01/26 09:08:35;;;;;;;3.65;3.00;;;;;;;16.48;47.22;96845.22;10368840;28;20433;-27
2023/01/26 09:13:37;;;;;;;2.92;2.40;;;;;;;16.49;47.37;96851.13;10368029;28;20036;-27
2023/01/26 09:18:38;;;;;;;4.03;3.10;;;;;;;16.49;47.81;96851.97;10369477;28;20103;-26
2023/01/26 09:23:38;;;;;;;4.03;2.70;;;;;;;16.48;47.42;96859.53;10368391;28;20543;-27
2023/01/26 09:28:39;;;;;;;3.72;2.88;;;;;;;16.47;47.74;96861.22;10367376;28;20308;-28
2023/01/26 09:33:39;;;;;;;2.97;2.67;;;;;;;16.47;47.83;96870.47;10367451;28;20042;-27
2023/01/26 09:38:39;;;;;;;4.07;2.97;;;;;;;16.46;47.52;96864.56;10368451;28;20484;-28
2023/01/26 09:43:53;;;;;;;3.77;3.07;;;;;;;16.46;47.72;96866.25;10357306;28;20482;-27
2023/01/26 09:49:12;;;;;;;3.67;3.03;;;;;;;16.47;47.79;96870.47;10368073;28;20814;-27
2023/01/26 09:54:30;;;;;;;3.83;2.88;;;;;;;16.47;47.71;96868.81;10367902;28;20456;-28
2023/01/26 09:59:46;;;;;;;3.05;2.65;;;;;;;16.47;47.57;96862.91;10361100;28;20034;-27
2023/01/26 10:04:51;;;;;;;3.30;3.00;;;;;;;16.45;47.82;96855.28;10359127;28;20549;-27
2023/01/26 10:09:52;;;;;;;3.13;2.60;;;;;;;16.47;47.73;96865.44;10367238;28;20399;-27
2023/01/26 10:15:23;;;;;;;3.05;2.58;;;;;;;16.44;47.54;96861.19;10361927;28;20452;-28
2023/01/26 10:20:27;;;;;;;3.08;2.78;;;;;;;16.41;47.82;96855.25;10366267;28;20030;-27
2023/01/26 10:25:36;;;;;;;5.55;2.92;;;;;;;16.45;47.77;96864.56;10367443;28;20037;-28
2023/01/26 10:30:38;;;;;;;3.63;3.10;;;;;;;16.45;47.99;96860.34;10366193;28;20121;-27
2023/01/26 10:35:38;;;;;;;3.13;2.53;;;;;;;16.46;47.50;96859.50;10365832;28;20029;-27
2023/01/26 10:40:44;;;;;;;2.40;2.00;;;;;;;16.48;47.52;96854.47;10360549;28;20022;-26
2023/01/26 10:45:46;;;;;;;3.33;2.42;;;;;;;16.46;47.72;96856.97;10367211;28;20046;-27
2023/01/26 10:50:47;;;;;;;3.38;2.92;;;;;;;16.48;47.76;96847.75;10363830;28;20557;-28
2023/01/26 10:56:04;;;;;;;3.83;2.70;;;;;;;16.48;47.50;96844.38;10364368;28;20096;-27
2023/01/26 11:01:08;;;;;;;2.78;2.33;;;;;;;16.49;47.94;96839.34;10364751;28;20070;-27
2023/01/26 11:06:17;;;;;;;3.00;2.30;;;;;;;16.46;48.07;96824.13;10364532;28;20030;-27
2023/01/26 11:11:25;;;;;;;3.20;2.55;;;;;;;16.39;47.64;96817.34;10364964;28;20034;-27
2023/01/26 11:16:26;;;;;;;3.75;3.22;;;;;;;16.44;47.65;96820.75;10363057;28;20121;-28
2023/01/26 11:21:40;;;;;;;3.40;2.47;;;;;;;16.47;47.60;96815.75;10356882;28;20498;-28
2023/01/26 11:27:01;;;;;;;3.30;2.63;;;;;;;16.48;47.76;96811.53;10362528;28;20453;-27
2023/01/26 11:32:16;;;;;;;23.55;3.47;;;;;;;16.52;47.06;96814.09;10373949;28;20042;-26
2023/01/26 11:37:31;;;;;;;7.18;4.15;;;;;;;16.46;49.51;96819.06;10370509;28;20033;-27
2023/01/26 11:42:50;;;;;;;4.88;4.38;;;;;;;16.46;48.61;96811.50;10353220;28;20129;-31
2023/01/26 11:48:17;;;;;;;8.43;5.20;;;;;;;16.42;48.02;96807.25;10373348;28;20030;-27
2023/01/26 11:53:29;;;;;;;6.35;3.00;;;;;;;16.46;48.16;96811.50;10367136;28;20069;-27
2023/01/26 11:58:43;;;;;;;5.28;3.00;;;;;;;16.47;48.49;96809.84;10365404;28;20426;-27
2023/01/26 12:03:48;;;;;;;4.78;3.33;;;;;;;16.53;47.27;96795.56;10372556;28;20084;-27
2023/01/26 12:09:09;;;;;;;3.72;2.45;;;;;;;16.63;47.35;96791.44;10362811;28;20445;-27
2023/01/26 12:14:33;;;;;;;4.65;3.17;;;;;;;16.64;48.98;96777.97;10365776;28;20141;-27
2023/01/26 12:20:03;;;;;;;3.72;2.67;;;;;;;16.63;49.48;96774.59;10363722;28;20391;-27
2023/01/26 12:25:22;;;;;;;3.00;2.47;;;;;;;16.59;49.02;96760.25;10370933;28;20030;-28
2023/01/26 12:31:11;;;;;;;5.13;2.90;;;;;;;16.61;49.26;96760.25;10368485;28;20038;-25
2023/01/26 12:36:38;;;;;;;7.95;2.65;;;;;;;16.59;49.03;96751.81;10281545;28;20049;-27
2023/01/26 12:42:09;;;;;;;3.97;2.75;;;;;;;16.57;49.16;96746.75;10348526;28;20473;-27
2023/01/26 12:47:19;;;;;;;5.60;2.65;;;;;;;16.58;48.83;96735.81;10365220;28;20121;-27
2023/01/26 12:52:32;;;;;;;4.25;2.60;;;;;;;16.59;48.74;96734.97;10377632;28;20034;-27
2023/01/26 12:57:43;;;;;;;4.68;2.33;;;;;;;16.59;49.04;96734.97;10355169;28;20037;-28
2023/01/26 13:02:53;;;;;;;4.65;2.80;;;;;;;16.61;48.12;96732.47;10370267;28;20036;-27
2023/01/26 13:07:53;;;;;;;2.55;2.22;;;;;;;16.60;48.93;96736.66;10368632;28;20121;-27
2023/01/26 13:13:20;;;;;;;3.40;2.20;;;;;;;16.60;48.77;96731.59;10354385;28;20038;-28
2023/01/26 13:18:53;;;;;;;2.85;2.03;;;;;;;16.66;47.66;96735.84;10364798;28;20037;-27
2023/01/26 13:23:54;;;;;;;3.53;2.30;;;;;;;16.81;47.93;96741.88;10363866;28;20041;-26
2023/01/26 13:29:26;;;;;;;5.13;2.67;;;;;;;16.90;49.03;96736.88;10362807;28;20064;-28
2023/01/26 13:34:35;;;;;;;3.20;2.35;;;;;;;16.93;47.50;96734.34;10359679;28;20026;-27
2023/01/26 13:39:40;;;;;;;5.40;2.45;;;;;;;16.99;47.91;96731.88;10359492;28;20394;-27
2023/01/26 13:44:45;;;;;;;6.10;2.58;;;;;;;16.96;47.90;96726.78;10354182;28;20053;-27
2023/01/26 13:49:45;;;;;;;4.10;2.55;;;;;;;16.99;47.44;96731.88;10362883;28;20033;-27
2023/01/26 13:54:48;;;;;;;5.47;2.60;;;;;;;17.00;47.41;96734.41;10357096;28;20034;-28
2023/01/26 14:00:00;;;;;;;3.22;2.35;;;;;;;16.96;47.74;96735.22;10357387;28;20029;-27
2023/01/26 14:05:02;;;;;;;3.80;2.30;;;;;;;16.96;47.55;96744.47;10362949;28;20445;-27
2023/01/26 14:10:03;;;;;;;7.07;2.42;;;;;;;16.94;47.85;96748.69;10367017;28;20474;-28
2023/01/26 14:15:06;;;;;;;8.98;3.45;;;;;;;16.88;47.84;96753.69;10361598;28;20395;-28
2023/01/26 14:20:29;;;;;;;8.40;4.57;;;;;;;16.88;45.83;96753.69;10363826;28;20056;-27
2023/01/26 14:25:29;;;;;;;7.55;3.13;;;;;;;16.88;46.75;96748.66;10366478;28;20117;-27
2023/01/26 14:30:33;;;;;;;8.50;3.30;;;;;;;16.89;47.68;96747.84;10365781;28;20487;-27
2023/01/26 14:35:33;;;;;;;9.23;3.17;;;;;;;16.88;47.52;96752.03;10364514;28;20355;-27
2023/01/26 14:40:33;;;;;;;6.87;3.03;;;;;;;16.91;47.80;96753.75;10365389;28;20553;-28
2023/01/26 14:45:35;;;;;;;7.43;2.90;;;;;;;16.90;46.86;96752.88;10369457;28;20285;-28
2023/01/26 14:50:36;;;;;;;6.30;3.35;;;;;;;16.86;46.90;96757.91;10365109;28;20069;-27
2023/01/26 14:55:36;;;;;;;7.80;3.45;;;;;;;16.91;47.40;96768.91;10366008;28;20397;-27
2023/01/26 15:00:37;;;;;;;5.40;3.63;;;;;;;16.91;47.06;96769.75;10362890;28;20042;-27
2023/01/26 15:05:40;;;;;;;5.68;3.38;;;;;;;16.89;47.49;96771.41;10372094;28;20043;-27
2023/01/26 15:16:22;;;;;;;5.90;3.38;;;;;;;16.90;46.52;96772.28;10380889;28;20029;-27
2023/01/26 15:21:31;;;;;;;3.50;3.10;;;;;;;16.89;47.27;96771.41;10366049;28;20075;-28
2023/01/26 15:26:34;;;;;;;5.82;3.40;;;;;;;16.87;46.48;96767.19;10379463;28;20112;-27
2023/01/26 15:31:34;;;;;;;5.72;2.95;;;;;;;16.89;46.94;96773.13;10372603;28;20060;-27
2023/01/26 15:36:50;;;;;;;7.40;3.20;;;;;;;16.81;46.35;96768.00;10379674;28;20034;-27
2023/01/26 15:42:20;;;;;;;15.35;5.55;;;;;;;16.65;45.50;96775.47;10363456;28;20041;-27
2023/01/26 15:47:20;;;;;;;5.72;3.67;;;;;;;16.75;45.63;96777.22;10367871;28;20034;-27
2023/01/26 15:52:24;;;;;;;5.63;3.40;;;;;;;16.86;45.86;96776.47;10365915;28;20037;-28
2023/01/26 15:57:24;;;;;;;8.57;4.07;;;;;;;16.89;46.09;96776.47;10361488;28;20036;-26
2023/01/26 16:02:27;;;;;;;8.47;3.30;;;;;;;16.93;45.82;96777.34;10368073;28;20029;-27
2023/01/26 16:07:27;;;;;;;4.63;3.22;;;;;;;16.89;47.26;96776.47;10370720;28;20079;-27
2023/01/26 16:12:27;;;;;;;6.40;3.20;;;;;;;16.84;47.14;96780.66;10362551;28;20042;-28
2023/01/26 16:17:28;;;;;;;7.97;3.63;;;;;;;16.84;47.32;96783.16;10367302;28;20048;-28
2023/01/26 16:22:28;;;;;;;10.20;3.63;;;;;;;16.92;47.42;96785.78;10376584;28;20449;-28
2023/01/26 16:27:28;;;;;;;7.17;3.70;;;;;;;16.88;47.22;96789.97;10362438;28;20362;-27
2023/01/26 16:32:29;;;;;;;3.80;2.70;;;;;;;16.86;47.91;96785.72;10368749;28;20034;-27
2023/01/26 16:37:29;;;;;;;7.83;3.27;;;;;;;16.81;47.35;96787.38;10366290;28;20030;-28
2023/01/26 16:42:31;;;;;;;6.13;3.20;;;;;;;16.83;47.60;96785.72;10368807;28;20595;-27
2023/01/26 16:47:32;;;;;;;3.75;2.50;;;;;;;16.84;47.51;96797.50;10369046;28;20134;-27
2023/01/26 16:52:33;;;;;;;7.37;3.23;;;;;;;16.83;47.65;96795.81;10365545;28;20041;-28
2023/01/26 16:57:34;;;;;;;5.65;3.20;;;;;;;16.85;47.62;96791.63;10376468;28;20026;-27
2023/01/26 17:02:35;;;;;;;5.17;3.50;;;;;;;16.90;47.26;96792.50;10370311;28;20436;-27
2023/01/26 17:07:35;;;;;;;3.65;2.70;;;;;;;16.91;47.27;96795.03;10368328;28;20029;-27
2023/01/26 17:12:36;;;;;;;3.43;2.63;;;;;;;16.90;47.00;96798.41;10367898;28;20041;-27
2023/01/26 17:17:36;;;;;;;6.20;3.38;;;;;;;16.85;47.60;96794.16;10364412;28;20034;-27
2023/01/26 17:22:37;;;;;;;6.87;3.10;;;;;;;16.79;47.60;96792.44;10373423;28;20026;-27
2023/01/26 17:27:37;;;;;;;8.27;3.10;;;;;;;16.78;48.03;96797.47;10374397;28;20370;-27
2023/01/26 17:32:38;;;;;;;6.37;2.73;;;;;;;16.77;47.90;96799.16;10369078;28;20089;-27
2023/01/26 17:37:39;;;;;;;4.70;3.07;;;;;;;16.74;47.84;96789.00;10365980;28;20505;-27
2023/01/26 17:42:39;;;;;;;3.90;3.25;;;;;;;16.73;47.97;96809.25;10374813;28;20061;-26
2023/01/26 17:47:39;;;;;;;9.77;2.83;;;;;;;16.72;48.42;96806.69;10368421;28;20034;-27
2023/01/26 17:52:40;;;;;;;8.33;3.07;;;;;;;16.70;48.82;96808.38;10369418;28;20490;-27
2023/01/26 17:57:40;;;;;;;4.57;2.57;;;;;;;16.69;49.24;96806.66;10365908;28;20560;-27
2023/01/26 18:02:40;;;;;;;4.87;2.90;;;;;;;16.70;48.46;96804.13;10367563;28;20114;-26
2023/01/26 18:07:41;;;;;;;5.77;2.90;;;;;;;16.71;48.45;96805.00;10366319;28;20331;-27
2023/01/26 18:12:41;;;;;;;7.83;3.93;;;;;;;16.75;48.54;96800.81;10365837;28;20592;-27
2023/01/26 18:17:41;;;;;;;7.47;3.80;;;;;;;16.77;48.80;96805.88;10367364;28;20505;-27
2023/01/26 18:22:42;;;;;;;7.23;4.13;;;;;;;16.77;48.72;96800.81;10371469;28;20037;-27
2023/01/26 18:27:42;;;;;;;5.72;3.30;;;;;;;16.74;48.47;96794.06;10364402;28;20044;-27
2023/01/26 18:32:43;;;;;;;7.40;3.53;;;;;;;16.74;48.90;96795.75;10367275;28;20030;-27
2023/01/26 18:37:43;;;;;;;10.67;5.33;;;;;;;16.73;49.86;96794.06;10370289;28;20061;-27
2023/01/26 18:42:43;;;;;;;9.40;5.03;;;;;;;16.72;49.85;96799.97;10379115;28;20311;-28
2023/01/26 18:47:44;;;;;;;9.77;5.32;;;;;;;16.72;49.32;96807.53;10372532;28;20040;-28
2023/01/26 18:52:44;;;;;;;9.47;4.83;;;;;;;16.76;49.28;96799.13;10378094;28;20065;-28
2023/01/26 18:57:45;;;;;;;10.03;5.60;;;;;;;16.72;49.36;96805.03;10377969;28;20676;-28
2023/01/26 19:02:45;;;;;;;11.57;6.77;;;;;;;16.72;49.01;96807.53;10380287;28;20299;-28
2023/01/26 19:07:45;;;;;;;14.13;6.67;;;;;;;16.70;48.76;96811.72;10370985;28;20064;-28
2023/01/26 19:12:49;;;;;;;11.67;6.27;;;;;;;16.68;48.83;96815.91;10369977;28;20053;-28
2023/01/26 19:17:49;;;;;;;15.18;6.65;;;;;;;16.71;48.48;96815.94;10361639;28;20292;-27
2023/01/26 19:22:53;;;;;;;15.52;6.68;;;;;;;16.72;48.26;96812.59;10367229;28;20030;-27
2023/01/26 19:27:53;;;;;;;16.23;6.43;;;;;;;16.73;47.96;96811.75;10373350;28;20030;-27
2023/01/26 19:38:12;;;;;;;8.43;7.03;;;;;;;16.70;47.74;96804.13;10371480;28;20370;-27
2023/01/26 19:43:14;;;;;;;10.57;6.53;;;;;;;16.71;47.63;96805.81;10374949;28;20111;-27
2023/01/26 19:48:15;;;;;;;10.90;6.20;;;;;;;16.68;47.68;96795.69;10364585;28;20041;-27
2023/01/26 19:53:15;;;;;;;11.25;6.63;;;;;;;16.70;47.16;96804.13;10368381;28;20049;-27
2023/01/26 19:58:16;;;;;;;13.83;5.77;;;;;;;16.71;47.76;96800.75;10362069;28;20037;-27
2023/01/26 20:03:17;;;;;;;8.87;5.63;;;;;;;16.72;47.87;96802.50;10362750;28;20490;-27
2023/01/26 20:08:18;;;;;;;8.88;5.93;;;;;;;16.66;47.66;96797.38;10366838;28;20037;-28
2023/01/26 20:13:18;;;;;;;9.43;6.25;;;;;;;16.68;47.49;96805.81;10363902;28;20037;-27
2023/01/26 20:18:18;;;;;;;8.40;5.83;;;;;;;16.66;47.68;96802.44;10365805;28;20029;-26
2023/01/26 20:23:19;;;;;;;8.17;5.60;;;;;;;16.65;47.77;96799.88;10364074;28;20343;-27
2023/01/26 20:28:20;;;;;;;8.73;5.18;;;;;;;16.64;47.63;96804.09;10365759;28;20124;-28
2023/01/26 20:33:20;;;;;;;7.73;6.30;;;;;;;16.62;47.67;96793.13;10360762;28;20108;-27
2023/01/26 20:38:20;;;;;;;8.80;6.00;;;;;;;16.68;47.35;96795.69;10363885;28;20113;-27
2023/01/26 20:43:21;;;;;;;8.90;5.47;;;;;;;16.77;47.08;96792.41;10362276;28;20053;-27
2023/01/26 20:48:21;;;;;;;7.40;5.80;;;;;;;16.75;47.05;96792.38;10365841;28;20050;-27
2023/01/26 20:53:21;;;;;;;10.10;6.27;;;;;;;16.71;47.63;96790.66;10362633;28;20053;-27
2023/01/26 20:58:22;;;;;;;12.80;7.43;;;;;;;16.69;47.92;96783.91;10359501;28;20037;-28
2023/01/26 21:03:22;;;;;;;12.10;7.23;;;;;;;16.71;48.28;96780.53;10366609;28;20045;-27
2023/01/26 21:08:23;;;;;;;13.87;8.63;;;;;;;16.74;48.66;96788.16;10356482;28;20069;-27
2023/01/26 21:13:23;;;;;;;13.65;8.15;;;;;;;16.73;48.00;96777.19;10328863;28;20088;-27
2023/01/26 21:18:23;;;;;;;11.93;7.97;;;;;;;16.72;48.50;96782.25;10330058;28;20398;-26
2023/01/26 21:23:24;;;;;;;12.07;6.97;;;;;;;16.67;49.70;96775.44;10365066;28;20276;-28
2023/01/26 21:28:25;;;;;;;16.40;7.83;;;;;;;16.67;49.33;96781.38;10368007;28;20807;-27
2023/01/26 21:33:30;;;;;;;12.52;6.78;;;;;;;16.69;49.50;96772.09;10377471;28;20273;-28
2023/01/26 21:38:36;;;;;;;17.63;6.85;;;;;;;16.70;49.25;96773.81;10366034;28;20489;-27
2023/01/26 21:43:36;;;;;;;10.83;6.10;;;;;;;16.75;47.69;96772.16;10364874;28;20038;-26
2023/01/26 21:48:38;;;;;;;13.30;7.10;;;;;;;16.74;49.19;96771.31;10366751;28;20034;-27
2023/01/26 21:53:38;;;;;;;10.32;6.43;;;;;;;16.78;48.75;96762.94;10359230;28;20076;-27
2023/01/26 21:58:56;;;;;;;10.73;6.10;;;;;;;16.81;49.41;96762.09;10360853;28;20376;-28
2023/01/26 22:03:58;;;;;;;11.80;6.30;;;;;;;16.76;49.74;96761.22;10365017;28;20163;-27
2023/01/26 22:08:59;;;;;;;9.60;5.50;;;;;;;16.74;50.08;96755.31;10360487;28;20030;-27
2023/01/26 22:14:00;;;;;;;11.02;6.28;;;;;;;16.71;50.79;96747.69;10362479;28;20108;-27
2023/01/26 22:19:00;;;;;;;9.20;5.38;;;;;;;16.71;51.36;96752.75;10366711;28;20030;-27
2023/01/26 22:24:01;;;;;;;12.03;5.90;;;;;;;16.73;51.28;96753.63;10361526;28;20044;-27
2023/01/26 22:29:02;;;;;;;11.50;5.63;;;;;;;16.74;51.07;96760.38;10365425;28;20045;-28
2023/01/26 22:34:03;;;;;;;10.88;5.57;;;;;;;16.74;51.27;96755.31;10367250;28;20121;-27
2023/01/26 22:39:04;;;;;;;11.98;6.28;;;;;;;16.73;51.46;96764.56;10363885;28;20046;-28
2023/01/26 22:44:04;;;;;;;14.10;7.53;;;;;;;16.73;51.33;96767.94;10363175;28;20056;-27
2023/01/26 22:49:08;;;;;;;9.82;5.50;;;;;;;16.74;51.43;96770.47;10364282;28;20382;-27
2023/01/26 22:54:09;;;;;;;8.20;5.30;;;;;;;16.75;51.55;96769.63;10360697;28;20509;-27
2023/01/26 22:59:09;;;;;;;8.18;5.05;;;;;;;16.77;51.60;96774.72;10363021;28;20026;-28
2023/01/26 23:04:09;;;;;;;9.90;5.60;;;;;;;16.79;51.58;96756.16;10365258;28;20103;-27
2023/01/26 23:09:10;;;;;;;11.60;5.63;;;;;;;16.81;51.28;96752.81;10366297;28;20057;-27
2023/01/26 23:14:10;;;;;;;9.03;5.20;;;;;;;16.82;51.31;96748.63;10362984;28;20117;-28
2023/01/26 23:19:10;;;;;;;9.93;5.23;;;;;;;16.79;51.63;96743.53;10366063;28;20104;-27
2023/01/26 23:24:11;;;;;;;9.50;4.90;;;;;;;16.75;51.42;96746.88;10361147;28;20029;-27
2023/01/26 23:29:11;;;;;;;7.03;4.87;;;;;;;16.74;51.84;96738.44;10370101;28;20181;-27
2023/01/26 23:34:11;;;;;;;11.47;5.87;;;;;;;16.73;51.63;96740.97;10373528;28;20046;-27
2023/01/26 23:39:12;;;;;;;9.40;4.87;;;;;;;16.73;51.77;96737.59;10369090;28;20045;-27
2023/01/26 23:44:12;;;;;;;9.97;5.00;;;;;;;16.73;52.26;96735.91;10368496;28;20052;-27
2023/01/26 23:49:13;;;;;;;9.20;5.30;;;;;;;16.71;51.89;96724.94;10376560;28;20029;-27
2023/01/26 23:54:13;;;;;;;8.53;5.03;;;;;;;16.74;52.17;96724.97;10368974;28;20125;-27
2023/01/26 23:59:13;;;;;;;8.27;5.05;;;;;;;16.74;52.23;96717.38;10368378;28;20038;-27
